Station: Ngayawili (Elcho Island)  

  Atmospheric Gas Attenuation - ITU Rec 676-11   ----------------- dB/100km -----------------
Date Time Temp RH % AH g/m3 Dew Point Wind Direction Speed kph Gust kph Barometer mB Rainfall Since 9am 24GHz 47GHz 76GHz 122GHz 134GHz 241GHz
10/05 02:00 24.2 98 21.56 23.9 17 24 1011.1 0.6 46.5 45.4 90.5 239.7 268.2 931.3
10/05 01:50 24.1 98 21.44 23.8 15 20 1011 0.6 46.3 45.2 90.0 238.4 266.5 925.6
10/05 01:40 24.1 98 21.44 23.8 19 24 1010.9 0.6 46.3 45.2 90.0 238.3 266.5 925.5
10/05 01:30 24.1 98 21.44 23.8 19 30 1011 0.6 46.3 45.2 90.0 238.4 266.5 925.6
10/05 01:20 24.1 98 21.44 23.8 19 26 1011 0.6 46.3 45.2 90.0 238.4 266.5 925.6
10/05 01:10 24 98 21.32 23.7 17 20 1011 0.6 46.0 45.0 89.6 237.1 264.9 919.9
10/05 01:00 24 98 21.32 23.7 22 33 1010.9 0.6 46.0 45.0 89.5 237.0 264.9 919.9
10/05 00:50 24 98 21.32 23.7 19 24 1011 0.6 46.0 45.0 89.6 237.1 264.9 919.9
10/05 00:40 23.9 98 21.2 23.6 22 28 1011.2 0.6 45.8 44.8 89.1 235.8 263.3 914.4
10/05 00:30 23.9 98 21.2 23.6 22 35 1011.3 0.6 45.8 44.8 89.1 235.8 263.3 914.4
10/05 00:20 23.9 98 21.2 23.6 28 33 1011.4 0.6 45.8 44.9 89.1 235.8 263.3 914.5
10/05 00:10 23.9 98 21.2 23.6 22 33 1011.8 0.6 45.8 44.9 89.1 235.9 263.4 914.7
10/05 00:00 23.9 98 21.2 23.6 17 22 1012 0.6 45.8 44.9 89.1 235.9 263.4 914.9
09/05 23:50 23.9 98 21.2 23.6 15 20 1012.1 0.6 45.8 44.9 89.1 235.9 263.4 914.9
09/05 23:40 23.9 98 21.2 23.6 15 17 1012 0.6 45.8 44.9 89.1 235.9 263.4 914.9
09/05 23:30 23.9 98 21.2 23.6 17 24 1012.1 0.6 45.8 44.9 89.1 235.9 263.4 914.9
09/05 23:20 24 98 21.32 23.7 19 24 1012.1 0.6 46.0 45.1 89.6 237.2 265.1 920.6
09/05 23:10 24 97 21.1 23.5 19 22 1012.1 0.6 45.6 44.6 88.5 234.3 261.4 907.9
09/05 23:00 24.2 96 21.12 23.5 15 26 1012.1 0.4 45.6 44.6 88.4 233.9 261.0 906.6
09/05 22:50 24.1 97 21.22 23.6 17 19 1012.2 0.4 45.8 44.8 89.0 235.6 263.1 913.7
09/05 22:40 24.1 97 21.22 23.6 17 20 1012.3 0.4 45.8 44.8 89.0 235.6 263.1 913.7
09/05 22:30 24.2 96 21.12 23.5 20 33 1012.2 0.4 45.6 44.6 88.4 233.9 261.1 906.7
09/05 22:20 24.3 95 21.02 23.4 15 20 1012.3 0.4 45.4 44.3 87.8 232.3 259.1 899.8
09/05 22:10 24.5 94 21.04 23.5 26 32 1012.1 0.4 45.4 44.2 87.6 231.9 258.7 898.4
09/05 22:00 24.5 94 21.04 23.5 20 28 1012.1 0.4 45.4 44.2 87.6 231.9 258.7 898.4
09/05 21:50 24.4 94 20.92 23.4 15 20 1012.2 0.4 45.1 44.1 87.1 230.6 257.1 892.9
09/05 21:40 24.4 94 20.92 23.4 19 24 1012 0.4 45.1 44.0 87.1 230.6 257.0 892.8
09/05 21:30 24.3 95 21.02 23.4 17 30 1012.1 0.4 45.4 44.3 87.7 232.3 259.0 899.7
09/05 21:20 24.2 96 21.12 23.5 17 22 1012.2 0.4 45.6 44.6 88.4 233.9 261.1 906.7
09/05 21:10 24.2 97 21.34 23.7 20 28 1012.4 0.4 46.1 45.0 89.5 236.9 264.7 919.4
09/05 21:00 24.3 98 21.69 24 17 24 1012.4 0.4 46.8 45.7 91.2 241.3 270.2 938.4
09/05 20:50 24.3 97 21.46 23.8 24 28 1012.3 0.4 46.3 45.2 90.0 238.2 266.3 925.0
09/05 20:40 24.5 96 21.48 23.8 20 24 1012.5 0.4 46.3 45.1 89.9 237.9 266.0 923.8
09/05 20:30 24.6 95 21.38 23.7 19 28 1012.5 0.4 46.1 44.9 89.2 236.2 264.0 916.9
09/05 20:20 25 92 21.18 23.6 17 24 1012.4 0.4 45.6 44.3 87.7 232.3 259.2 900.5
09/05 20:10 25.4 89 20.95 23.5 30 39 1012.2 0.4 45.1 43.6 86.1 228.0 254.1 882.7
09/05 20:00 25.6 88 20.95 23.5 20 30 1012 0.4 45.1 43.5 85.9 227.3 253.4 880.2
09/05 19:50 25.8 87 20.95 23.5 22 28 1011.8 0.4 45.0 43.3 85.6 226.7 252.7 877.7
09/05 19:40 25.8 87 20.95 23.5 24 35 1011.6 0.4 45.0 43.3 85.6 226.6 252.6 877.6
09/05 19:30 26 87 21.18 23.7 24 37 1011.6 0.4 45.5 43.7 86.5 229.0 255.6 888.1
09/05 19:20 26 87 21.18 23.7 22 32 1011.3 0.4 45.5 43.7 86.5 229.0 255.6 887.9
09/05 19:10 26.1 87 21.3 23.8 26 30 1011 0.4 45.7 43.8 87.0 230.2 257.1 893.2
09/05 19:00 26.2 87 21.42 23.9 22 35 1010.8 0.4 46.0 44.0 87.4 231.4 258.6 898.6
09/05 18:50 26.5 86 21.53 24 20 24 1010.7 0.4 46.2 44.1 87.6 231.9 259.3 901.1
09/05 18:40 26.5 86 21.53 24 15 19 1010.5 0.4 46.2 44.1 87.6 231.9 259.3 901.0
09/05 18:30 26.7 85 21.52 24 22 32 1010.4 0.4 46.1 43.9 87.3 231.1 258.4 898.0
09/05 18:20 26.8 84 21.38 23.9 22 28 1010.2 0.4 45.8 43.6 86.5 229.0 255.8 888.9
09/05 18:10 27 83 21.36 23.9 19 28 1010 0.4 45.8 43.4 86.1 228.1 254.8 885.3
09/05 18:00 27.3 82 21.46 24 20 30 1009.9 0.4 45.9 43.5 86.3 228.4 255.3 887.2
09/05 17:50 27.5 82 21.7 24.1 22 32 1009.9 0.4 46.4 43.8 87.2 230.9 258.4 898.1
09/05 17:40 27.7 81 21.67 24.1 22 28 1009.8 0.4 46.3 43.7 86.8 229.9 257.2 894.0
09/05 17:30 28 79 21.49 24 24 39 1009.6 0.4 45.9 43.2 85.6 226.6 253.3 880.4
09/05 17:20 29 76 21.83 24.3 28 33 1009.5 0.4 46.5 43.3 86.1 228.0 255.2 887.1
09/05 17:10 29.2 76 22.07 24.5 19 26 1009.5 0.4 47.0 43.6 87.0 230.4 258.3 897.8
09/05 17:00 29.3 76 22.19 24.6 17 24 1009.5 0.4 47.3 43.8 87.5 231.6 259.8 903.1
09/05 16:50 29.3 76 22.19 24.6 15 20 1009.4 0.4 47.3 43.8 87.5 231.6 259.8 903.0
09/05 16:40 28.9 77 22 24.5 15 20 1009.4 0.4 46.9 43.7 87.0 230.4 258.2 897.5
09/05 16:30 29.2 76 22.07 24.7 17 26 1009.5 0.4 47.0 43.6 87.0 230.4 258.3 897.8
09/05 16:20 29.5 74 21.84 24.4 17 24 1009.2 0.4 46.5 43.0 85.5 226.5 253.6 881.6
09/05 16:10 29.5 77 22.73 25 17 22 1009.2 0.4 48.4 44.7 89.8 237.9 267.5 930.0
09/05 16:00 28.5 77 21.52 24.1 17 24 1009.3 0.4 45.9 42.9 85.2 225.5 252.1 876.1
09/05 15:50 28.5 78 21.8 24.3 19 22 1009.1 0.4 46.5 43.5 86.5 229.0 256.4 891.2
09/05 15:40 28.2 81 22.27 24.6 13 17 1009 0.4 47.6 44.5 89.1 236.0 264.9 920.5
09/05 15:30 27.9 80 21.64 24.1 20 33 1008.9 0.4 46.3 43.5 86.4 228.8 255.9 889.4
09/05 15:20 28.2 82 22.55 24.8 19 22 1009 0.4 48.2 45.1 90.5 239.6 269.3 936.1
09/05 15:10 27 93 23.94 25.8 11 13 1009.1 0.4 51.3 48.6 99.0 262.3 296.8 1031.3
09/05 15:00 26.3 90 22.28 24.5 22 37 1009.3 0.4 47.8 45.6 91.5 242.2 272.0 945.0
09/05 14:50 27.7 79 21.13 23.7 26 37 1009.3 0 45.2 42.6 84.2 222.9 248.7 864.2
09/05 14:40 28.9 74 21.14 23.8 22 28 1009.4 0 45.1 42.0 82.9 219.5 244.9 851.1
09/05 14:30 30.4 69 21.39 24.1 15 32 1009.2 0 45.4 41.7 82.4 218.3 243.7 847.4
09/05 14:20 31.3 64 20.82 23.9 15 17 1009 0 44.1 40.2 78.9 208.8 232.4 808.0
09/05 14:10 31.6 63 20.83 23.9 13 22 1009 0 44.1 40.1 78.6 208.1 231.6 805.3
09/05 14:00 31.4 61 19.95 23.2 17 28 1009.1 0 42.3 38.6 74.9 198.2 219.4 763.0
09/05 13:50 31.2 63 20.38 23.3 19 24 1009.2 0 43.2 39.5 77.0 203.8 226.2 786.7
09/05 13:40 32 60 20.26 23.5 20 30 1009.2 0 42.9 38.9 75.7 200.3 222.1 772.5
09/05 13:30 32.6 61 21.27 24.1 17 26 1009.4 0 44.9 40.4 79.6 210.7 235.0 817.3
09/05 13:20 32.2 61 20.82 23.7 19 24 1009.6 0 44.0 39.8 78.0 206.5 229.7 798.9
09/05 13:10 31.8 60 20.05 23.3 13 15 1009.8 0 42.5 38.6 75.0 198.5 219.8 764.4
09/05 13:00 31.6 61 20.16 23.4 20 35 1010 0 42.7 38.9 75.7 200.3 222.0 772.0
09/05 12:50 31.7 60 19.94 23 26 30 1010.1 0 42.2 38.5 74.6 197.5 218.6 760.0
09/05 12:40 31.5 63 20.71 23.6 19 28 1010.3 0 43.9 40.0 78.2 207.1 230.3 801.0
09/05 12:30 31.3 64 20.82 23.9 19 30 1010.5 0 44.1 40.3 79.0 209.0 232.6 808.8
09/05 12:20 31.2 61 19.74 23 28 32 1010.6 0 41.9 38.4 74.2 196.5 217.2 755.2
09/05 12:10 31 61 19.53 22.6 22 32 1010.9 0 41.5 38.1 73.5 194.6 214.8 746.8
09/05 12:00 31.9 65 21.83 24.7 17 26 1011 0 46.2 41.9 82.9 219.7 245.8 854.7
09/05 11:50 31.1 64 20.6 23.7 17 24 1011.3 0 43.7 40.0 78.2 207.1 230.1 800.1
09/05 11:40 30.7 65 20.47 23.4 20 28 1011.5 0 43.5 40.0 78.1 206.6 229.4 797.7
09/05 11:30 30.9 64 20.38 23.5 19 28 1011.6 0 43.2 39.7 77.4 205.0 227.5 791.1
09/05 11:20 30.6 65 20.36 23.3 15 22 1011.7 0 43.2 39.8 77.7 205.6 228.1 793.2
09/05 11:10 30.5 67 20.88 23.7 11 17 1011.8 0 44.3 40.8 80.1 212.2 236.2 821.2
09/05 11:00 30.2 67 20.54 23.4 19 28 1011.9 0 43.7 40.4 78.9 208.9 232.1 806.8
09/05 10:50 30.1 67 20.43 23.5 17 26 1012.1 0 43.4 40.2 78.5 207.9 230.8 802.3
09/05 10:40 29.3 71 20.73 23.5 22 28 1012.1 0 44.2 41.2 80.7 213.7 237.8 826.5
09/05 10:30 29.6 72 21.37 24.2 17 28 1012.2 0 45.5 42.2 83.4 220.8 246.5 857.1
09/05 10:20 29.6 69 20.48 23.5 13 22 1012.2 0 43.6 40.6 79.3 209.8 233.1 810.2
09/05 10:10 29.4 72 21.14 24 19 26 1012.2 0 45.0 41.9 82.6 218.5 243.7 847.1
09/05 10:00 29 76 21.83 24.3 15 24 1012.2 0 46.5 43.4 86.3 228.4 255.7 888.7
09/05 09:50 28.3 79 21.84 24.3 17 20 1012.3 0 46.6 43.8 87.1 230.7 258.3 897.6
09/05 09:40 27.9 80 21.64 24.1 13 19 1012.3 0 46.2 43.6 86.6 229.3 256.5 891.4
09/05 09:30 28 80 21.76 24.2 13 20 1012.2 0 46.5 43.8 87.1 230.6 258.0 896.7

Last Refresh: 10-May-2026 02:07:33

Bureau of Meteorology